ホワイトホース の空港の天気 - METARとTAF

ホワイトホース国際空港 ( CYXY / YXY ) - カナダ ユーコン準州ホワイトホース
飛行場実況気象(Metar)
観測時間08/22 09:00 PDT (08/22 16:00 UTC)
風向・風速南南東 4m/s
視程10km以上
天気現象
全天の4割程度の雲 雲底高度 2740m
気温8℃
湿度61%
気圧1011.7hPa
METARCYXY 221600Z 16007KT 40SM SCT090 08/01 A2981 RMK AC4 SLP117
過去の天気等 Google飛行場航空写真 Wunderground天気予報

過去48時間のMETAR

飛行場予報(TAF)
発表時間: 8/22 04:40 PDT (8/22 11:40 UTC)
予報対象時間: 22日5時 PDT ~ 23日5時 PDT
風向・風速不定 2m/s
視程10km以上
全天の4割程度の雲 雲底高度 3050m
22日5時 PDT ~ 22日7時 PDT に一時的に
全天の8割程度の雲 雲底高度 2740m
22日8時 PDT ~ 22日10時 PDT に徐々に
風向・風速南南東 4m/s
22日16時 PDT から
風向・風速南南東 7m/s 瞬間風速 12m/s
視程10km以上
全天の4割程度の雲 雲底高度 2440m
22日16時 PDT ~ 22日20時 PDT に一時的に
全天の8割程度の雲 雲底高度 2440m
23日2時 PDT から
風向・風速南 4m/s
視程10km以上
全天の8割程度の雲 雲底高度 3050m
TAF CYXY 221140Z 2212/2312 VRB03KT P6SM SCT100
TEMPO 2212/2214 BKN090
BECMG 2215/2217 15008KT
FM222300 15013G23KT P6SM SCT080
TEMPO 2223/2303 BKN080
FM230900 17008KT P6SM BKN100 RMK NXT FCST BY 221800Z